Latest Coastal Weather Observations for Frankston (Ballam Park)

IDV60701

Issued at 1:12 am EST Thursday 3 September 2026 (issued every 10 minutes, with the page automatically refreshed every 10 minutes)

About coastal observations | Map of coastal stations | Coastal observations for VIC | Marine services | Other Formats
Station Details ID: 086388 Name: FRANKSTON (BALLAM PARK) Lat: -38.15 Lon: 145.16 Height: 58.47 m
Data from the previous 72 hours. | See also: Recent months at Frankston (Ballam Park)
Date/Time
EST
Wind Sea
Height
m
Swell Vis
km
Cloud Weather Temp
°C
Press
MSL
hPa
Rain since
9am
mm
Dir  Spd
kts
Gust
kts
Height
m
Period
s
Dir
03/01:00am NNW 4 8 - - - - - - - 11.4 1009.9 0.0
03/12:30am NW 6 13 - - - - - - - 11.5 1009.9 0.0
03/12:00am NNW 5 9 - - - - - - - 11.5 1010.2 0.0
 
Date/Time
EST
Wind Sea
Height
m
Swell Vis
km
Cloud Weather Temp
°C
Press
MSL
hPa
Rain since
9am
mm
Dir  Spd
kts
Gust
kts
Height
m
Period
s
Dir
02/11:30pm NW 5 11 - - - - - - - 11.6 1010.3 0.0
02/11:00pm NNW 6 9 - - - - - - - 12.0 1010.7 0.0
02/10:30pm NW 4 8 - - - - - - - 12.4 1011.0 0.0
02/10:00pm NW 4 9 - - - - - - - 12.6 1011.5 0.0
02/09:30pm NW 3 6 - - - - - - - 12.6 1011.5 0.0
02/09:00pm NW 2 4 - - - - - - - 12.4 1011.6 0.0
02/08:30pm NW 2 3 - - - - - - - 12.3 1011.7 0.0
02/08:00pm NW 2 3 - - - - - - - 11.8 1011.6 0.0
02/07:30pm CALM 0 2 - - - - - - - 11.2 1011.2 0.0
02/07:00pm CALM 0 0 - - - - - - - 11.3 1011.0 0.0
02/06:30pm W 1 3 - - - - - - - 11.9 1011.1 0.0
02/06:00pm W 2 4 - - - - - - - 12.9 1011.0 0.0
02/05:30pm W 3 7 - - - - - - - 13.6 1010.9 0.0
02/05:00pm W 4 9 - - - - - - - 14.0 1011.0 0.0
02/04:30pm W 5 11 - - - - - - - 14.6 1011.2 0.0
02/04:00pm W 6 12 - - - - - - - 14.9 1011.6 0.0
02/03:30pm W 6 13 - - - - - - - 14.7 1012.0 0.0
02/03:00pm W 6 12 - - - - - - - 14.7 1012.2 0.0
02/02:30pm WNW 6 11 - - - - - - - 14.5 1012.3 0.0
02/02:00pm WNW 7 11 - - - - - - - 14.3 1012.4 0.0
02/01:30pm WNW 7 13 - - - - - - - 14.0 1012.8 0.0
02/01:00pm W 6 11 - - - - - - - 14.0 1013.4 0.0
02/12:30pm W 6 11 - - - - - - - 13.4 1014.1 0.0
02/12:00pm WNW 7 13 - - - - - - - 13.1 1014.4 0.0
02/11:30am WNW 8 13 - - - - - - - 12.9 1014.6 0.0
02/11:00am WNW 7 13 - - - - - - - 13.1 1014.9 0.0
02/10:30am W 6 11 - - - - - - - 13.1 1015.0 0.0
02/10:00am WNW 6 11 - - - - - - - 13.2 1015.3 0.0
02/09:30am WNW 6 9 - - - - - - - 12.3 1015.3 0.0
02/09:00am W 7 12 - - - - - - - 12.4 1015.1 0.0
02/08:30am W 7 13 - - - - - - - 11.5 1014.9 0.0
02/08:00am W 6 11 - - - - - - - 11.6 1014.7 0.0
02/07:30am WNW 6 10 - - - - - - - 11.4 1014.5 0.0
02/07:00am WNW 5 10 - - - - - - - 11.5 1014.3 0.0
02/06:30am WNW 4 10 - - - - - - - 11.6 1013.9 0.0
02/06:00am WNW 5 9 - - - - - - - 11.8 1013.5 0.0
02/05:30am WNW 4 7 - - - - - - - 12.2 1013.2 0.0
02/05:00am WNW 2 4 - - - - - - - 12.3 1012.9 0.0
02/04:30am WSW 1 5 - - - - - - - 12.5 1012.7 0.0
02/04:00am WSW 2 4 - - - - - - - 12.9 1012.4 0.0
02/03:30am SW 4 8 - - - - - - - 13.4 1011.9 0.0
02/03:00am NW 5 8 - - - - - - - 14.4 1011.7 0.0
02/02:30am NW 6 12 - - - - - - - 14.9 1011.9 0.0
02/02:00am NW 7 11 - - - - - - - 15.0 1011.9 0.0
02/01:30am NW 6 11 - - - - - - - 15.0 1012.0 0.0
02/01:00am NW 6 11 - - - - - - - 15.0 1011.9 0.0
02/12:30am NW 5 11 - - - - - - - 14.5 1011.9 0.0
02/12:00am WNW 6 12 - - - - - - - 14.4 1012.1 0.0
 
Date/Time
EST
Wind Sea
Height
m
Swell Vis
km
Cloud Weather Temp
°C
Press
MSL
hPa
Rain since
9am
mm
Dir  Spd
kts
Gust
kts
Height
m
Period
s
Dir
01/11:30pm NW 6 11 - - - - - - - 15.5 1012.2 0.0
01/11:00pm NW 9 17 - - - - - - - 16.6 1012.1 0.0
01/10:30pm NNW 8 16 - - - - - - - 16.5 1011.9 0.0
01/10:00pm NNW 8 16 - - - - - - - 16.2 1011.8 0.0
01/09:30pm NNW 5 11 - - - - - - - 16.3 1011.9 0.0
01/09:00pm NNW 7 14 - - - - - - - 16.7 1012.1 0.0
01/08:30pm NNW 7 15 - - - - - - - 17.2 1011.9 0.0
01/08:00pm NNW 8 12 - - - - - - - 18.2 1011.8 0.0
01/07:30pm NNW 8 17 - - - - - - - 18.8 1011.7 0.0
01/07:00pm NNW 7 11 - - - - - - - 18.8 1011.9 0.0
01/06:30pm NNW 9 16 - - - - - - - 19.5 1012.3 0.0
01/06:00pm NNW 8 15 - - - - - - - 19.3 1012.7 0.0
01/05:30pm NNW 8 15 - - - - - - - 19.3 1012.8 0.0
01/05:00pm NNW 9 14 - - - - - - - 19.1 1012.8 0.0
01/04:30pm NNW 8 15 - - - - - - - 19.3 1013.0 0.0
01/04:00pm NNW 9 15 - - - - - - - 19.6 1012.8 0.0
01/03:30pm NNW 10 17 - - - - - - - 20.2 1012.9 0.0
01/03:00pm NNW 14 24 - - - - - - - 20.3 1012.7 0.0
01/02:30pm NNW 11 18 - - - - - - - 20.8 1012.8 0.0
01/02:00pm NNW 11 21 - - - - - - - 20.9 1013.5 0.0
01/01:30pm NW 11 19 - - - - - - - 20.3 1014.3 0.0
01/01:00pm NW 10 20 - - - - - - - 20.3 1015.0 0.0
01/12:30pm NNW 12 20 - - - - - - - 20.2 1015.5 0.0
01/12:00pm NNW 12 21 - - - - - - - 19.9 1016.4 0.0
01/11:39am NNW 13 24 - - - - - - - 19.6 1016.7 0.0
01/11:30am NNW 14 26 - - - - - - - 19.5 1016.8 0.0
01/11:07am N 15 26 - - - - - - - 19.2 1016.7 0.0
01/11:00am N 14 31 - - - - - - - 19.2 1016.7 0.0
01/10:57am N 13 31 - - - - - - - 19.2 1016.8 0.0
01/10:37am NNW 15 29 - - - - - - - 18.7 1017.1 0.0
01/10:30am NNW 13 21 - - - - - - - 18.6 1017.2 0.0
01/10:20am NNW 13 21 - - - - - - - 18.3 1017.6 0.0
01/10:06am NNW 15 26 - - - - - - - 17.8 1018.0 0.0
01/10:00am NNW 12 22 - - - - - - - 17.8 1018.1 0.0
01/09:30am N 9 16 - - - - - - - 16.8 1018.7 0.0
01/09:00am NNW 7 13 - - - - - - - 15.7 1019.7 0.0
01/08:30am NNW 7 12 - - - - - - - 14.5 1020.3 0.0
01/08:00am NNW 6 9 - - - - - - - 13.5 1020.7 0.0
01/07:30am NNW 6 13 - - - - - - - 12.1 1020.6 0.0
01/07:00am NW 4 5 - - - - - - - 9.9 1020.5 0.0
01/06:30am NW 3 5 - - - - - - - 9.8 1020.4 0.0
01/06:00am N 3 5 - - - - - - - 10.0 1020.5 0.0
01/05:30am NW 2 4 - - - - - - - 9.5 1020.8 0.0
01/05:00am NNW 2 3 - - - - - - - 9.5 1020.9 0.0
01/04:30am N 2 4 - - - - - - - 9.7 1021.0 0.0
01/04:00am CALM 0 1 - - - - - - - 9.0 1021.4 0.0
01/03:30am NW 2 3 - - - - - - - 9.7 1021.8 0.0
01/03:00am NW 2 4 - - - - - - - 9.2 1022.2 0.0
01/02:30am CALM 0 0 - - - - - - - 8.3 1022.6 0.0
01/02:00am CALM 0 1 - - - - - - - 8.7 1023.1 0.0
01/01:30am CALM 0 0 - - - - - - - 9.3 1023.6 0.0
01/01:00am CALM 0 0 - - - - - - - 9.5 1023.7 0.0
01/12:30am CALM 0 0 - - - - - - - 9.9 1024.2 0.0
01/12:00am CALM 0 0 - - - - - - - 9.5 1024.7 0.0
 
Date/Time
EST
Wind Sea
Height
m
Swell Vis
km
Cloud Weather Temp
°C
Press
MSL
hPa
Rain since
9am
mm
Dir  Spd
kts
Gust
kts
Height
m
Period
s
Dir
31/11:30pm CALM 0 0 - - - - - - - 9.9 1025.2 0.0
31/11:00pm ENE 1 2 - - - - - - - 10.3 1025.6 0.0
31/10:30pm ESE 1 4 - - - - - - - 10.5 1025.9 0.0
31/10:00pm ESE 2 3 - - - - - - - 10.5 1026.0 0.0
31/09:30pm ESE 2 4 - - - - - - - 10.6 1026.1 0.0
31/09:00pm ESE 2 4 - - - - - - - 10.7 1026.3 0.0
31/08:30pm SSE 1 2 - - - - - - - 10.9 1026.5 0.0
31/08:00pm SE 1 3 - - - - - - - 11.1 1026.7 0.0
31/07:30pm ESE 2 3 - - - - - - - 11.6 1027.0 0.0
31/07:00pm ESE 2 4 - - - - - - - 12.1 1027.1 0.0
31/06:30pm CALM 0 2 - - - - - - - 12.3 1027.1 0.0
31/06:00pm CALM 0 0 - - - - - - - 13.3 1027.2 0.0
31/05:30pm CALM 0 0 - - - - - - - 15.1 1027.3 0.0
31/05:00pm CALM 0 1 - - - - - - - 16.4 1027.4 0.0
31/04:30pm NW 2 3 - - - - - - - 16.0 1027.6 0.0
31/04:00pm WNW 2 3 - - - - - - - 16.6 1027.8 0.0
31/03:30pm NW 2 3 - - - - - - - 16.0 1028.0 0.0
31/03:00pm WNW 3 5 - - - - - - - 15.1 1028.4 0.0
31/02:30pm NW 3 5 - - - - - - - 15.2 1028.9 0.0
31/02:00pm WNW 3 4 - - - - - - - 14.6 1029.4 0.0
31/01:30pm NW 3 6 - - - - - - - 14.5 1029.8 0.0
31/01:00pm WNW 2 4 - - - - - - - 14.2 1030.3 0.0
31/12:30pm NW 2 4 - - - - - - - 12.7 1031.0 0.0
31/12:00pm CALM 0 3 - - - - - - - 12.1 1031.6 0.0
31/11:30am WSW 2 5 - - - - - - - 11.5 1032.0 0.0
31/11:00am NW 2 5 - - - - - - - 11.1 1032.2 0.0
31/10:30am NW 2 5 - - - - - - - 10.8 1032.4 0.0
31/10:00am WNW 2 4 - - - - - - - 10.9 1032.4 0.0
31/09:30am WNW 1 3 - - - - - - - 10.9 1032.5 0.0
31/09:00am W 2 4 - - - - - - - 10.9 1032.5 0.0
31/08:30am W 2 5 - - - - - - - 10.6 1032.4 0.0
31/08:00am WNW 3 5 - - - - - - - 10.6 1032.3 0.0
31/07:30am WNW 3 5 - - - - - - - 10.4 1032.2 0.0
31/07:00am W 1 3 - - - - - - - 10.3 1032.0 0.0
31/06:30am WNW 2 4 - - - - - - - 10.3 1032.0 0.0
31/06:00am WNW 2 4 - - - - - - - 10.4 1031.8 0.0
31/05:30am W 3 5 - - - - - - - 10.7 1031.9 0.0
31/05:00am WNW 1 3 - - - - - - - 11.0 1031.7 0.0
31/04:30am WNW 3 4 - - - - - - - 11.3 1031.7 0.0
31/04:00am CALM 0 0 - - - - - - - 11.1 1031.7 0.0
31/03:30am CALM 0 0 - - - - - - - 11.2 1032.0 0.0
31/03:00am CALM 0 0 - - - - - - - 11.4 1032.2 0.0
31/02:30am CALM 0 0 - - - - - - - 11.4 1032.3 0.0
31/02:00am CALM 0 0 - - - - - - - 11.5 1032.5 0.0
31/01:30am CALM 0 0 - - - - - - - 11.4 1032.6 0.0

Other formats

Comma delimited format used in spreadsheet applications
http://www.bom.gov.au/fwo/IDV60701/IDV60701.94876.axf

JavaScript Object Notation format (JSON) in row-major order
http://www.bom.gov.au/fwo/IDV60701/IDV60701.94876.json

Data quality

Most of these data are generated automatically and are frequently updated. Quality checks on data are not normally performed. It is possible for incorrect values to appear. Refer to information at About Latest Weather Observations and please check the disclaimer before using these data.